Searcy, AR (72143)

1:55 AM CST on February 23, 2017 (GMT -0600)
Honey Hill Road | | Change Station

Elev 390 ft 35.22 °N, 91.80 °W | Updated 27 seconds ago

Fog
Fog
50.5 °F
Feels Like 50.5 °F
N
0.0
Wind Variable Wind from SW
Gusts 1.0 mph

Today
High -- | Low -- °F
--% Chance of Precip.
Yesterday
High -- | Low -- °F
Precip. -- in
Pressure 29.83 in
Visibility 0.2 miles
Clouds Overcast 200 ft
Dew Point 50 °F
Humidity 98%
Rainfall 0.00 in
Snow Depth Not available.
6:43 AM 5:57 PM
Waning Crescent, 12% visible
METAR KSRC 230656Z AUTO 00000KT 1/4SM FG OVC002 09/09 A2981 RMK AO2 SLP101 T00890089
Pressure 29.83 in
Visibility 0.2 miles
Clouds Overcast 200 ft
Dew Point 50 °F
Humidity 98%
Rainfall 0.00 in
Snow Depth Not available.
6:43 AM 5:57 PM
Waning Crescent, 12% visible
METAR KSRC 230656Z AUTO 00000KT 1/4SM FG OVC002 09/09 A2981 RMK AO2 SLP101 T00890089

Get Your Daily Forecast Email!

Thanks for signing up!

Be on the lookout for a verification email in your inbox.

You'll start receiving the daily forecast at 8 AM.

×

10-Day Weather Forecast

Almanac

Astronomy

Feb. 23, 2017 Rise Set
Actual Time
Civil Twilight
Nautical Twilight
Astronomical Twilight
Moon
Length of Visible Light
Length of Day
Tomorrow will be .
, % of the Moon is Illuminated

Today's Extremes

State Highs State Lows

Community

WunderPhotos

Upload Photos

1,962,540 photos uploaded!

WunderBlog® & News

Nearby

Air Quality

  Air Quality AQ Index Pollutant
Not available.

Snow Depth

Station Depth Elevation

Earthquake Activity

City Distance Mag. Time & Date
Minimum magnitude displayed is 2.5.

Coastal Water Temperatures

Place Temperature

Stations

Nearby Weather Stations

Station Location Temp. Windchill Dew Point Humidity Wind Precip. Elev Updated Type
                   

Watches & Warnings

There are currently no watches in effect.